sensor_id;sensor_type;location;lat;lon;timestamp;temperature;humidity
44190;DHT22;29856;52.144;5.430;2023-08-24T00:00:05;19.10;99.90
44190;DHT22;29856;52.144;5.430;2023-08-24T00:02:31;19.10;99.90
44190;DHT22;29856;52.144;5.430;2023-08-24T00:04:56;19.10;99.90
44190;DHT22;29856;52.144;5.430;2023-08-24T00:07:22;19.00;99.90
44190;DHT22;29856;52.144;5.430;2023-08-24T00:09:47;19.00;99.90
44190;DHT22;29856;52.144;5.430;2023-08-24T00:12:13;19.10;99.90
44190;DHT22;29856;52.144;5.430;2023-08-24T00:14:38;19.10;99.90
44190;DHT22;29856;52.144;5.430;2023-08-24T00:17:04;19.00;99.90
44190;DHT22;29856;52.144;5.430;2023-08-24T00:19:29;18.90;99.90
44190;DHT22;29856;52.144;5.430;2023-08-24T00:21:55;18.80;99.90
44190;DHT22;29856;52.144;5.430;2023-08-24T00:24:20;18.80;99.90
44190;DHT22;29856;52.144;5.430;2023-08-24T00:26:46;18.80;99.90
44190;DHT22;29856;52.144;5.430;2023-08-24T00:29:11;18.90;99.90
44190;DHT22;29856;52.144;5.430;2023-08-24T00:31:36;18.80;99.90
44190;DHT22;29856;52.144;5.430;2023-08-24T00:34:02;18.70;99.90
44190;DHT22;29856;52.144;5.430;2023-08-24T00:36:27;18.80;99.90
44190;DHT22;29856;52.144;5.430;2023-08-24T00:38:53;18.70;99.90
44190;DHT22;29856;52.144;5.430;2023-08-24T00:41:18;18.90;99.90
44190;DHT22;29856;52.144;5.430;2023-08-24T00:43:44;18.90;99.90
44190;DHT22;29856;52.144;5.430;2023-08-24T00:46:10;18.80;99.90
44190;DHT22;29856;52.144;5.430;2023-08-24T00:48:35;18.80;99.90
44190;DHT22;29856;52.144;5.430;2023-08-24T00:51:01;18.80;99.90
44190;DHT22;29856;52.144;5.430;2023-08-24T00:53:29;18.80;99.90
44190;DHT22;29856;52.144;5.430;2023-08-24T00:55:55;18.90;99.90
44190;DHT22;29856;52.144;5.430;2023-08-24T00:58:21;18.80;99.90
44190;DHT22;29856;52.144;5.430;2023-08-24T01:00:48;18.70;99.90
44190;DHT22;29856;52.144;5.430;2023-08-24T01:03:14;18.70;99.90
44190;DHT22;29856;52.144;5.430;2023-08-24T01:05:39;18.70;99.90
44190;DHT22;29856;52.144;5.430;2023-08-24T01:08:05;18.70;99.90
44190;DHT22;29856;52.144;5.430;2023-08-24T01:10:44;18.70;99.90
44190;DHT22;29856;52.144;5.430;2023-08-24T01:13:17;18.70;99.90
44190;DHT22;29856;52.144;5.430;2023-08-24T01:15:51;18.70;99.90
44190;DHT22;29856;52.144;5.430;2023-08-24T01:18:22;18.70;99.90
44190;DHT22;29856;52.144;5.430;2023-08-24T01:20:49;18.80;99.90
44190;DHT22;29856;52.144;5.430;2023-08-24T01:23:36;18.90;99.90
44190;DHT22;29856;52.144;5.430;2023-08-24T01:26:17;19.00;99.90
44190;DHT22;29856;52.144;5.430;2023-08-24T01:28:45;18.90;99.90
44190;DHT22;29856;52.144;5.430;2023-08-24T01:31:10;18.90;99.90
44190;DHT22;29856;52.144;5.430;2023-08-24T01:33:36;19.10;99.90
44190;DHT22;29856;52.144;5.430;2023-08-24T01:36:02;19.00;99.90
44190;DHT22;29856;52.144;5.430;2023-08-24T01:38:27;19.00;99.90
44190;DHT22;29856;52.144;5.430;2023-08-24T01:43:29;19.00;99.90
44190;DHT22;29856;52.144;5.430;2023-08-24T01:45:56;19.00;99.90
44190;DHT22;29856;52.144;5.430;2023-08-24T01:48:23;19.00;99.90
44190;DHT22;29856;52.144;5.430;2023-08-24T01:50:50;19.00;99.90
44190;DHT22;29856;52.144;5.430;2023-08-24T01:53:16;18.90;99.90
44190;DHT22;29856;52.144;5.430;2023-08-24T01:55:41;18.90;99.90
44190;DHT22;29856;52.144;5.430;2023-08-24T01:58:07;18.90;99.90
44190;DHT22;29856;52.144;5.430;2023-08-24T02:00:33;18.90;99.90
44190;DHT22;29856;52.144;5.430;2023-08-24T02:02:58;18.80;99.90
44190;DHT22;29856;52.144;5.430;2023-08-24T02:05:24;18.80;99.90
44190;DHT22;29856;52.144;5.430;2023-08-24T02:07:49;19.00;99.90
44190;DHT22;29856;52.144;5.430;2023-08-24T02:10:15;19.00;99.90
44190;DHT22;29856;52.144;5.430;2023-08-24T02:12:40;19.00;99.90
44190;DHT22;29856;52.144;5.430;2023-08-24T02:15:06;19.00;99.90
44190;DHT22;29856;52.144;5.430;2023-08-24T02:17:31;18.90;99.90
44190;DHT22;29856;52.144;5.430;2023-08-24T02:19:57;18.90;99.90
44190;DHT22;29856;52.144;5.430;2023-08-24T02:22:22;18.90;99.90
44190;DHT22;29856;52.144;5.430;2023-08-24T02:24:48;18.90;99.90
44190;DHT22;29856;52.144;5.430;2023-08-24T02:27:13;18.80;99.90
44190;DHT22;29856;52.144;5.430;2023-08-24T02:29:39;18.70;99.90
44190;DHT22;29856;52.144;5.430;2023-08-24T02:32:05;18.80;99.90
44190;DHT22;29856;52.144;5.430;2023-08-24T02:34:30;18.70;99.90
44190;DHT22;29856;52.144;5.430;2023-08-24T02:36:56;18.80;99.90
44190;DHT22;29856;52.144;5.430;2023-08-24T02:39:22;18.60;99.90
44190;DHT22;29856;52.144;5.430;2023-08-24T02:41:47;18.60;99.90
44190;DHT22;29856;52.144;5.430;2023-08-24T02:44:13;18.60;99.90
44190;DHT22;29856;52.144;5.430;2023-08-24T02:46:39;18.40;99.90
44190;DHT22;29856;52.144;5.430;2023-08-24T02:49:04;18.40;99.90
44190;DHT22;29856;52.144;5.430;2023-08-24T02:51:30;18.30;99.90
44190;DHT22;29856;52.144;5.430;2023-08-24T02:53:55;18.30;99.90
44190;DHT22;29856;52.144;5.430;2023-08-24T02:56:21;18.20;99.90
44190;DHT22;29856;52.144;5.430;2023-08-24T02:58:46;18.20;99.90
44190;DHT22;29856;52.144;5.430;2023-08-24T03:01:11;18.20;99.90
44190;DHT22;29856;52.144;5.430;2023-08-24T03:03:37;18.20;99.90
44190;DHT22;29856;52.144;5.430;2023-08-24T03:06:04;18.20;99.90
44190;DHT22;29856;52.144;5.430;2023-08-24T03:08:31;18.20;99.90
44190;DHT22;29856;52.144;5.430;2023-08-24T03:10:58;18.20;99.90
44190;DHT22;29856;52.144;5.430;2023-08-24T03:13:24;18.10;99.90
44190;DHT22;29856;52.144;5.430;2023-08-24T03:15:49;18.10;99.90
44190;DHT22;29856;52.144;5.430;2023-08-24T03:18:16;18.10;99.90
44190;DHT22;29856;52.144;5.430;2023-08-24T03:20:42;18.00;99.90
44190;DHT22;29856;52.144;5.430;2023-08-24T03:23:07;18.00;99.90
44190;DHT22;29856;52.144;5.430;2023-08-24T03:25:37;18.00;99.90
44190;DHT22;29856;52.144;5.430;2023-08-24T03:28:04;18.00;99.90
44190;DHT22;29856;52.144;5.430;2023-08-24T03:30:30;18.00;99.90
44190;DHT22;29856;52.144;5.430;2023-08-24T03:32:55;18.00;99.90
44190;DHT22;29856;52.144;5.430;2023-08-24T03:35:21;17.90;99.90
44190;DHT22;29856;52.144;5.430;2023-08-24T03:37:46;17.90;99.90
44190;DHT22;29856;52.144;5.430;2023-08-24T03:40:12;17.90;99.90
44190;DHT22;29856;52.144;5.430;2023-08-24T03:42:38;17.80;99.90
44190;DHT22;29856;52.144;5.430;2023-08-24T03:45:04;17.80;99.90
44190;DHT22;29856;52.144;5.430;2023-08-24T03:47:29;17.80;99.90
44190;DHT22;29856;52.144;5.430;2023-08-24T03:49:55;17.80;99.90
44190;DHT22;29856;52.144;5.430;2023-08-24T03:52:20;17.80;99.90
44190;DHT22;29856;52.144;5.430;2023-08-24T03:54:46;17.90;99.90
44190;DHT22;29856;52.144;5.430;2023-08-24T03:57:11;17.90;99.90
44190;DHT22;29856;52.144;5.430;2023-08-24T03:59:37;17.80;99.90
44190;DHT22;29856;52.144;5.430;2023-08-24T04:02:02;17.90;99.90
44190;DHT22;29856;52.144;5.430;2023-08-24T04:04:28;17.90;99.90
44190;DHT22;29856;52.144;5.430;2023-08-24T04:06:55;17.90;99.90
44190;DHT22;29856;52.144;5.430;2023-08-24T04:09:20;17.90;99.90
44190;DHT22;29856;52.144;5.430;2023-08-24T04:11:46;17.80;99.90
44190;DHT22;29856;52.144;5.430;2023-08-24T04:14:11;17.90;99.90
44190;DHT22;29856;52.144;5.430;2023-08-24T04:16:37;17.90;99.90
44190;DHT22;29856;52.144;5.430;2023-08-24T04:19:03;17.80;99.90
44190;DHT22;29856;52.144;5.430;2023-08-24T04:21:28;17.80;99.90
44190;DHT22;29856;52.144;5.430;2023-08-24T04:23:54;17.80;99.90
44190;DHT22;29856;52.144;5.430;2023-08-24T04:26:19;17.80;99.90
44190;DHT22;29856;52.144;5.430;2023-08-24T04:28:45;17.70;99.90
44190;DHT22;29856;52.144;5.430;2023-08-24T04:31:10;17.70;99.90
44190;DHT22;29856;52.144;5.430;2023-08-24T04:33:36;17.60;99.90
44190;DHT22;29856;52.144;5.430;2023-08-24T04:36:02;17.70;99.90
44190;DHT22;29856;52.144;5.430;2023-08-24T04:38:28;17.60;99.90
44190;DHT22;29856;52.144;5.430;2023-08-24T04:40:55;17.60;99.90
44190;DHT22;29856;52.144;5.430;2023-08-24T04:43:22;17.60;99.90
44190;DHT22;29856;52.144;5.430;2023-08-24T04:45:49;17.70;99.90
44190;DHT22;29856;52.144;5.430;2023-08-24T04:48:14;17.80;99.90
44190;DHT22;29856;52.144;5.430;2023-08-24T04:50:43;17.90;99.90
44190;DHT22;29856;52.144;5.430;2023-08-24T04:53:08;17.90;99.90
44190;DHT22;29856;52.144;5.430;2023-08-24T04:55:34;18.00;99.90
44190;DHT22;29856;52.144;5.430;2023-08-24T04:57:59;18.10;99.90
44190;DHT22;29856;52.144;5.430;2023-08-24T05:00:25;18.10;99.90
44190;DHT22;29856;52.144;5.430;2023-08-24T05:02:50;18.10;99.90
44190;DHT22;29856;52.144;5.430;2023-08-24T05:05:16;18.00;99.90
44190;DHT22;29856;52.144;5.430;2023-08-24T05:07:41;18.00;99.90
44190;DHT22;29856;52.144;5.430;2023-08-24T05:10:07;18.00;99.90
44190;DHT22;29856;52.144;5.430;2023-08-24T05:12:33;18.00;99.90
44190;DHT22;29856;52.144;5.430;2023-08-24T05:14:58;17.90;99.90
44190;DHT22;29856;52.144;5.430;2023-08-24T05:17:24;18.00;99.90
44190;DHT22;29856;52.144;5.430;2023-08-24T05:19:53;18.10;99.90
44190;DHT22;29856;52.144;5.430;2023-08-24T05:22:19;18.10;99.90
44190;DHT22;29856;52.144;5.430;2023-08-24T05:24:44;18.00;99.90
44190;DHT22;29856;52.144;5.430;2023-08-24T05:27:10;18.00;99.90
44190;DHT22;29856;52.144;5.430;2023-08-24T05:29:35;18.00;99.90
44190;DHT22;29856;52.144;5.430;2023-08-24T05:32:01;18.00;99.90
44190;DHT22;29856;52.144;5.430;2023-08-24T05:34:27;18.00;99.90
44190;DHT22;29856;52.144;5.430;2023-08-24T05:36:52;18.00;99.90
44190;DHT22;29856;52.144;5.430;2023-08-24T05:39:18;18.00;99.90
44190;DHT22;29856;52.144;5.430;2023-08-24T05:41:43;17.90;99.90
44190;DHT22;29856;52.144;5.430;2023-08-24T05:44:09;17.90;99.90
44190;DHT22;29856;52.144;5.430;2023-08-24T05:46:34;17.90;99.90
44190;DHT22;29856;52.144;5.430;2023-08-24T05:49:00;17.90;99.90
44190;DHT22;29856;52.144;5.430;2023-08-24T05:51:25;17.90;99.90
44190;DHT22;29856;52.144;5.430;2023-08-24T05:53:51;17.90;99.90
44190;DHT22;29856;52.144;5.430;2023-08-24T05:56:16;18.00;99.90
44190;DHT22;29856;52.144;5.430;2023-08-24T05:58:42;18.00;99.90
44190;DHT22;29856;52.144;5.430;2023-08-24T06:01:07;18.10;99.90
44190;DHT22;29856;52.144;5.430;2023-08-24T06:03:34;18.10;99.90
44190;DHT22;29856;52.144;5.430;2023-08-24T06:06:03;18.10;99.90
44190;DHT22;29856;52.144;5.430;2023-08-24T06:08:29;18.10;99.90
44190;DHT22;29856;52.144;5.430;2023-08-24T06:10:55;18.10;99.90
44190;DHT22;29856;52.144;5.430;2023-08-24T06:13:20;18.10;99.90
44190;DHT22;29856;52.144;5.430;2023-08-24T06:15:46;18.00;99.90
44190;DHT22;29856;52.144;5.430;2023-08-24T06:18:11;18.10;99.90
44190;DHT22;29856;52.144;5.430;2023-08-24T06:20:37;18.20;99.90
44190;DHT22;29856;52.144;5.430;2023-08-24T06:23:02;18.20;99.90
44190;DHT22;29856;52.144;5.430;2023-08-24T06:25:28;18.30;99.90
44190;DHT22;29856;52.144;5.430;2023-08-24T06:27:53;18.40;99.90
44190;DHT22;29856;52.144;5.430;2023-08-24T06:30:19;18.50;99.90
44190;DHT22;29856;52.144;5.430;2023-08-24T06:32:44;18.60;99.90
44190;DHT22;29856;52.144;5.430;2023-08-24T06:35:10;18.70;99.90
44190;DHT22;29856;52.144;5.430;2023-08-24T06:37:35;18.90;99.90
44190;DHT22;29856;52.144;5.430;2023-08-24T06:40:01;19.00;99.90
44190;DHT22;29856;52.144;5.430;2023-08-24T06:42:26;19.10;99.90
44190;DHT22;29856;52.144;5.430;2023-08-24T06:44:52;19.10;99.90
44190;DHT22;29856;52.144;5.430;2023-08-24T06:47:17;19.10;99.90
44190;DHT22;29856;52.144;5.430;2023-08-24T06:49:43;19.20;99.90
44190;DHT22;29856;52.144;5.430;2023-08-24T06:52:08;19.50;99.90
44190;DHT22;29856;52.144;5.430;2023-08-24T06:54:34;19.60;99.90
44190;DHT22;29856;52.144;5.430;2023-08-24T06:56:59;19.70;99.90
44190;DHT22;29856;52.144;5.430;2023-08-24T06:59:25;19.80;99.90
44190;DHT22;29856;52.144;5.430;2023-08-24T07:01:50;19.90;99.90
44190;DHT22;29856;52.144;5.430;2023-08-24T07:04:15;20.00;99.90
44190;DHT22;29856;52.144;5.430;2023-08-24T07:06:41;20.10;99.90
44190;DHT22;29856;52.144;5.430;2023-08-24T07:09:06;20.10;99.90
44190;DHT22;29856;52.144;5.430;2023-08-24T07:11:32;20.20;99.90
44190;DHT22;29856;52.144;5.430;2023-08-24T07:13:57;20.20;99.90
44190;DHT22;29856;52.144;5.430;2023-08-24T07:16:23;20.20;99.90
44190;DHT22;29856;52.144;5.430;2023-08-24T07:18:48;20.40;99.90
44190;DHT22;29856;52.144;5.430;2023-08-24T07:21:14;20.50;99.90
44190;DHT22;29856;52.144;5.430;2023-08-24T07:23:39;20.60;99.90
44190;DHT22;29856;52.144;5.430;2023-08-24T07:26:05;20.70;99.90
44190;DHT22;29856;52.144;5.430;2023-08-24T07:28:30;20.70;99.90
44190;DHT22;29856;52.144;5.430;2023-08-24T07:30:56;20.80;99.90
44190;DHT22;29856;52.144;5.430;2023-08-24T07:33:22;21.00;99.90
44190;DHT22;29856;52.144;5.430;2023-08-24T07:35:47;21.10;99.90
44190;DHT22;29856;52.144;5.430;2023-08-24T07:38:13;21.20;99.90
44190;DHT22;29856;52.144;5.430;2023-08-24T07:40:38;21.30;99.90
44190;DHT22;29856;52.144;5.430;2023-08-24T07:43:04;21.50;99.90
44190;DHT22;29856;52.144;5.430;2023-08-24T07:45:29;21.60;99.90
44190;DHT22;29856;52.144;5.430;2023-08-24T07:47:55;21.70;99.90
44190;DHT22;29856;52.144;5.430;2023-08-24T07:50:20;21.70;99.90
44190;DHT22;29856;52.144;5.430;2023-08-24T07:52:46;21.80;99.90
44190;DHT22;29856;52.144;5.430;2023-08-24T07:55:11;21.90;99.90
44190;DHT22;29856;52.144;5.430;2023-08-24T07:57:37;22.10;99.90
44190;DHT22;29856;52.144;5.430;2023-08-24T08:00:04;22.20;99.90
44190;DHT22;29856;52.144;5.430;2023-08-24T08:02:30;22.30;99.90
44190;DHT22;29856;52.144;5.430;2023-08-24T08:04:58;22.40;99.90
44190;DHT22;29856;52.144;5.430;2023-08-24T08:07:25;22.60;99.90
44190;DHT22;29856;52.144;5.430;2023-08-24T08:09:51;22.70;99.90
44190;DHT22;29856;52.144;5.430;2023-08-24T08:12:16;22.90;99.90
44190;DHT22;29856;52.144;5.430;2023-08-24T08:14:42;23.10;99.90
44190;DHT22;29856;52.144;5.430;2023-08-24T08:17:07;23.20;99.90
44190;DHT22;29856;52.144;5.430;2023-08-24T08:19:33;23.40;99.90
44190;DHT22;29856;52.144;5.430;2023-08-24T08:21:58;23.50;99.90
44190;DHT22;29856;52.144;5.430;2023-08-24T08:24:24;23.50;99.90
44190;DHT22;29856;52.144;5.430;2023-08-24T08:26:49;23.60;99.90
44190;DHT22;29856;52.144;5.430;2023-08-24T08:29:15;23.80;99.90
44190;DHT22;29856;52.144;5.430;2023-08-24T08:31:40;24.00;99.90
44190;DHT22;29856;52.144;5.430;2023-08-24T08:34:06;24.20;99.90
44190;DHT22;29856;52.144;5.430;2023-08-24T08:36:31;24.30;99.90
44190;DHT22;29856;52.144;5.430;2023-08-24T08:38:57;24.50;99.90
44190;DHT22;29856;52.144;5.430;2023-08-24T08:41:24;24.60;99.90
44190;DHT22;29856;52.144;5.430;2023-08-24T08:43:51;24.60;99.90
44190;DHT22;29856;52.144;5.430;2023-08-24T08:46:17;24.60;99.90
44190;DHT22;29856;52.144;5.430;2023-08-24T08:48:44;24.70;99.90
44190;DHT22;29856;52.144;5.430;2023-08-24T08:51:10;24.80;99.90
44190;DHT22;29856;52.144;5.430;2023-08-24T08:53:37;25.00;99.90
44190;DHT22;29856;52.144;5.430;2023-08-24T08:56:03;25.10;99.90
44190;DHT22;29856;52.144;5.430;2023-08-24T08:58:29;25.10;99.90
44190;DHT22;29856;52.144;5.430;2023-08-24T09:00:55;24.90;99.90
44190;DHT22;29856;52.144;5.430;2023-08-24T09:03:21;24.90;99.90
44190;DHT22;29856;52.144;5.430;2023-08-24T09:05:46;25.20;99.90
44190;DHT22;29856;52.144;5.430;2023-08-24T09:08:12;25.20;99.90
44190;DHT22;29856;52.144;5.430;2023-08-24T09:10:37;25.30;99.90
44190;DHT22;29856;52.144;5.430;2023-08-24T09:13:03;25.20;99.90
44190;DHT22;29856;52.144;5.430;2023-08-24T09:15:35;25.20;99.90
44190;DHT22;29856;52.144;5.430;2023-08-24T09:18:00;25.40;99.90
44190;DHT22;29856;52.144;5.430;2023-08-24T09:20:28;25.50;99.90
44190;DHT22;29856;52.144;5.430;2023-08-24T09:22:53;25.70;99.90
44190;DHT22;29856;52.144;5.430;2023-08-24T09:25:19;25.80;99.90
44190;DHT22;29856;52.144;5.430;2023-08-24T09:27:44;25.80;99.90
44190;DHT22;29856;52.144;5.430;2023-08-24T09:30:10;25.70;99.90
44190;DHT22;29856;52.144;5.430;2023-08-24T09:32:36;26.00;99.90
44190;DHT22;29856;52.144;5.430;2023-08-24T09:35:08;26.30;99.90
44190;DHT22;29856;52.144;5.430;2023-08-24T09:37:35;26.50;99.90
44190;DHT22;29856;52.144;5.430;2023-08-24T09:40:02;26.60;99.90
44190;DHT22;29856;52.144;5.430;2023-08-24T09:42:28;26.70;99.90
44190;DHT22;29856;52.144;5.430;2023-08-24T09:44:53;26.70;99.90
44190;DHT22;29856;52.144;5.430;2023-08-24T09:47:19;26.80;99.90
44190;DHT22;29856;52.144;5.430;2023-08-24T09:49:45;26.80;99.90
44190;DHT22;29856;52.144;5.430;2023-08-24T09:52:11;26.90;99.90
44190;DHT22;29856;52.144;5.430;2023-08-24T09:54:37;26.90;99.90
44190;DHT22;29856;52.144;5.430;2023-08-24T09:57:05;26.80;99.90
44190;DHT22;29856;52.144;5.430;2023-08-24T09:59:32;27.00;99.90
44190;DHT22;29856;52.144;5.430;2023-08-24T10:02:00;27.10;99.90
44190;DHT22;29856;52.144;5.430;2023-08-24T10:04:29;27.20;99.90
44190;DHT22;29856;52.144;5.430;2023-08-24T10:07:10;27.10;99.90
44190;DHT22;29856;52.144;5.430;2023-08-24T10:09:44;27.10;99.90
44190;DHT22;29856;52.144;5.430;2023-08-24T10:12:11;27.30;99.90
44190;DHT22;29856;52.144;5.430;2023-08-24T10:14:53;27.30;99.90
44190;DHT22;29856;52.144;5.430;2023-08-24T10:17:19;27.40;99.90
44190;DHT22;29856;52.144;5.430;2023-08-24T10:19:46;27.20;99.90
44190;DHT22;29856;52.144;5.430;2023-08-24T10:22:12;27.10;99.90
44190;DHT22;29856;52.144;5.430;2023-08-24T10:24:39;27.10;99.90
44190;DHT22;29856;52.144;5.430;2023-08-24T10:27:05;27.00;99.90
44190;DHT22;29856;52.144;5.430;2023-08-24T10:29:34;27.00;99.90
44190;DHT22;29856;52.144;5.430;2023-08-24T10:32:01;27.00;99.90
44190;DHT22;29856;52.144;5.430;2023-08-24T10:34:27;26.90;99.90
44190;DHT22;29856;52.144;5.430;2023-08-24T10:36:52;26.90;99.90
44190;DHT22;29856;52.144;5.430;2023-08-24T10:39:18;26.80;99.90
44190;DHT22;29856;52.144;5.430;2023-08-24T10:41:52;26.80;99.90
44190;DHT22;29856;52.144;5.430;2023-08-24T10:44:25;26.80;99.90
44190;DHT22;29856;52.144;5.430;2023-08-24T10:47:13;26.70;99.90
44190;DHT22;29856;52.144;5.430;2023-08-24T10:49:40;26.60;99.90
44190;DHT22;29856;52.144;5.430;2023-08-24T10:52:30;26.60;99.90
44190;DHT22;29856;52.144;5.430;2023-08-24T10:54:56;26.70;99.90
44190;DHT22;29856;52.144;5.430;2023-08-24T10:57:26;26.70;99.90
44190;DHT22;29856;52.144;5.430;2023-08-24T11:00:03;26.70;99.90
44190;DHT22;29856;52.144;5.430;2023-08-24T11:02:29;26.60;99.90
44190;DHT22;29856;52.144;5.430;2023-08-24T11:05:05;26.60;99.90
44190;DHT22;29856;52.144;5.430;2023-08-24T11:07:31;26.50;99.90
44190;DHT22;29856;52.144;5.430;2023-08-24T11:09:56;26.50;99.90
44190;DHT22;29856;52.144;5.430;2023-08-24T11:12:22;26.50;99.90
44190;DHT22;29856;52.144;5.430;2023-08-24T11:14:52;26.60;99.90
44190;DHT22;29856;52.144;5.430;2023-08-24T11:17:19;26.50;99.90
44190;DHT22;29856;52.144;5.430;2023-08-24T11:19:52;26.50;99.90
44190;DHT22;29856;52.144;5.430;2023-08-24T11:22:18;26.50;99.90
44190;DHT22;29856;52.144;5.430;2023-08-24T11:24:44;26.40;99.90
44190;DHT22;29856;52.144;5.430;2023-08-24T11:27:10;26.50;99.90
44190;DHT22;29856;52.144;5.430;2023-08-24T11:29:35;26.60;99.90
44190;DHT22;29856;52.144;5.430;2023-08-24T11:32:01;26.60;99.90
44190;DHT22;29856;52.144;5.430;2023-08-24T11:34:27;26.60;99.90
44190;DHT22;29856;52.144;5.430;2023-08-24T11:36:53;26.60;99.90
44190;DHT22;29856;52.144;5.430;2023-08-24T11:39:20;26.60;99.90
44190;DHT22;29856;52.144;5.430;2023-08-24T11:42:00;26.60;99.90
44190;DHT22;29856;52.144;5.430;2023-08-24T11:44:26;26.70;99.90
44190;DHT22;29856;52.144;5.430;2023-08-24T11:46:51;26.70;99.90
44190;DHT22;29856;52.144;5.430;2023-08-24T11:49:17;26.70;99.90
44190;DHT22;29856;52.144;5.430;2023-08-24T11:51:43;26.80;99.90
44190;DHT22;29856;52.144;5.430;2023-08-24T11:54:08;26.80;99.90
44190;DHT22;29856;52.144;5.430;2023-08-24T11:56:41;26.80;99.90
44190;DHT22;29856;52.144;5.430;2023-08-24T11:59:11;26.90;99.90
44190;DHT22;29856;52.144;5.430;2023-08-24T12:01:37;26.90;99.90
44190;DHT22;29856;52.144;5.430;2023-08-24T12:04:03;27.00;99.90
44190;DHT22;29856;52.144;5.430;2023-08-24T12:06:28;27.10;99.90
44190;DHT22;29856;52.144;5.430;2023-08-24T12:08:54;27.20;99.90
44190;DHT22;29856;52.144;5.430;2023-08-24T12:11:20;27.20;99.90
44190;DHT22;29856;52.144;5.430;2023-08-24T12:13:51;27.10;99.90
44190;DHT22;29856;52.144;5.430;2023-08-24T12:16:17;27.30;99.90
44190;DHT22;29856;52.144;5.430;2023-08-24T12:18:52;27.60;99.90
44190;DHT22;29856;52.144;5.430;2023-08-24T12:21:18;27.80;99.90
44190;DHT22;29856;52.144;5.430;2023-08-24T12:23:44;28.30;99.90
44190;DHT22;29856;52.144;5.430;2023-08-24T12:26:17;28.50;99.90
44190;DHT22;29856;52.144;5.430;2023-08-24T12:28:43;28.60;99.90
44190;DHT22;29856;52.144;5.430;2023-08-24T12:31:08;28.50;99.90
44190;DHT22;29856;52.144;5.430;2023-08-24T12:33:34;28.40;99.90
44190;DHT22;29856;52.144;5.430;2023-08-24T12:35:59;28.00;99.90
44190;DHT22;29856;52.144;5.430;2023-08-24T12:38:26;27.80;99.90
44190;DHT22;29856;52.144;5.430;2023-08-24T12:40:52;27.60;99.90
44190;DHT22;29856;52.144;5.430;2023-08-24T12:43:18;27.80;99.90
44190;DHT22;29856;52.144;5.430;2023-08-24T12:45:43;28.00;99.90
44190;DHT22;29856;52.144;5.430;2023-08-24T12:48:09;27.40;99.90
44190;DHT22;29856;52.144;5.430;2023-08-24T12:50:36;27.50;99.90
44190;DHT22;29856;52.144;5.430;2023-08-24T12:53:01;27.80;99.90
44190;DHT22;29856;52.144;5.430;2023-08-24T12:55:27;27.70;99.90
44190;DHT22;29856;52.144;5.430;2023-08-24T12:57:53;27.60;99.90
44190;DHT22;29856;52.144;5.430;2023-08-24T13:00:19;27.70;99.90
44190;DHT22;29856;52.144;5.430;2023-08-24T13:02:44;27.50;99.90
44190;DHT22;29856;52.144;5.430;2023-08-24T13:05:10;27.50;99.90
44190;DHT22;29856;52.144;5.430;2023-08-24T13:07:36;27.70;99.90
44190;DHT22;29856;52.144;5.430;2023-08-24T13:10:02;27.80;99.90
44190;DHT22;29856;52.144;5.430;2023-08-24T13:12:28;27.80;99.90
44190;DHT22;29856;52.144;5.430;2023-08-24T13:14:54;27.90;99.90
44190;DHT22;29856;52.144;5.430;2023-08-24T13:17:19;28.00;99.90
44190;DHT22;29856;52.144;5.430;2023-08-24T13:19:45;28.20;99.90
44190;DHT22;29856;52.144;5.430;2023-08-24T13:22:10;28.40;99.90
44190;DHT22;29856;52.144;5.430;2023-08-24T13:24:36;28.70;99.90
44190;DHT22;29856;52.144;5.430;2023-08-24T13:27:02;28.80;99.90
44190;DHT22;29856;52.144;5.430;2023-08-24T13:29:27;29.00;99.90
44190;DHT22;29856;52.144;5.430;2023-08-24T13:31:53;29.20;99.90
44190;DHT22;29856;52.144;5.430;2023-08-24T13:34:18;29.00;99.90
44190;DHT22;29856;52.144;5.430;2023-08-24T13:36:44;29.10;99.90
44190;DHT22;29856;52.144;5.430;2023-08-24T13:39:09;29.20;99.90
44190;DHT22;29856;52.144;5.430;2023-08-24T13:41:35;29.30;99.90
44190;DHT22;29856;52.144;5.430;2023-08-24T13:44:00;29.40;99.90
44190;DHT22;29856;52.144;5.430;2023-08-24T13:46:26;29.60;99.90
44190;DHT22;29856;52.144;5.430;2023-08-24T13:48:51;29.70;99.90
44190;DHT22;29856;52.144;5.430;2023-08-24T13:51:17;29.70;99.90
44190;DHT22;29856;52.144;5.430;2023-08-24T13:53:42;29.80;99.90
44190;DHT22;29856;52.144;5.430;2023-08-24T13:56:08;29.90;99.90
44190;DHT22;29856;52.144;5.430;2023-08-24T13:58:33;30.00;99.90
44190;DHT22;29856;52.144;5.430;2023-08-24T14:00:59;30.00;99.90
44190;DHT22;29856;52.144;5.430;2023-08-24T14:03:24;29.70;99.90
44190;DHT22;29856;52.144;5.430;2023-08-24T14:05:55;29.70;99.90
44190;DHT22;29856;52.144;5.430;2023-08-24T14:08:20;29.60;99.90
44190;DHT22;29856;52.144;5.430;2023-08-24T14:10:46;29.50;99.90
44190;DHT22;29856;52.144;5.430;2023-08-24T14:13:11;29.50;99.90
44190;DHT22;29856;52.144;5.430;2023-08-24T14:15:37;29.60;99.90
44190;DHT22;29856;52.144;5.430;2023-08-24T14:18:02;29.60;99.90
44190;DHT22;29856;52.144;5.430;2023-08-24T14:20:28;29.40;99.90
44190;DHT22;29856;52.144;5.430;2023-08-24T14:22:53;29.30;99.90
44190;DHT22;29856;52.144;5.430;2023-08-24T14:25:19;29.30;99.90
44190;DHT22;29856;52.144;5.430;2023-08-24T14:27:44;29.20;99.90
44190;DHT22;29856;52.144;5.430;2023-08-24T14:30:10;29.10;99.90
44190;DHT22;29856;52.144;5.430;2023-08-24T14:32:36;29.10;99.90
44190;DHT22;29856;52.144;5.430;2023-08-24T14:35:02;29.10;99.90
44190;DHT22;29856;52.144;5.430;2023-08-24T14:37:27;29.10;99.90
44190;DHT22;29856;52.144;5.430;2023-08-24T14:39:53;28.90;99.90
44190;DHT22;29856;52.144;5.430;2023-08-24T14:42:18;28.90;99.90
44190;DHT22;29856;52.144;5.430;2023-08-24T14:44:44;28.90;99.90
44190;DHT22;29856;52.144;5.430;2023-08-24T14:47:09;29.00;99.90
44190;DHT22;29856;52.144;5.430;2023-08-24T14:49:34;28.90;99.90
44190;DHT22;29856;52.144;5.430;2023-08-24T14:52:00;28.80;99.90
44190;DHT22;29856;52.144;5.430;2023-08-24T14:54:25;28.70;99.90
44190;DHT22;29856;52.144;5.430;2023-08-24T14:56:51;28.70;99.90
44190;DHT22;29856;52.144;5.430;2023-08-24T14:59:16;28.60;99.90
44190;DHT22;29856;52.144;5.430;2023-08-24T15:01:42;28.50;99.90
44190;DHT22;29856;52.144;5.430;2023-08-24T15:04:08;28.40;99.90
44190;DHT22;29856;52.144;5.430;2023-08-24T15:06:34;28.40;99.90
44190;DHT22;29856;52.144;5.430;2023-08-24T15:08:59;28.30;99.90
44190;DHT22;29856;52.144;5.430;2023-08-24T15:11:25;28.30;99.90
44190;DHT22;29856;52.144;5.430;2023-08-24T15:13:50;28.30;99.90
44190;DHT22;29856;52.144;5.430;2023-08-24T15:16:16;28.30;99.90
44190;DHT22;29856;52.144;5.430;2023-08-24T15:18:42;28.30;99.90
44190;DHT22;29856;52.144;5.430;2023-08-24T15:21:08;28.20;99.90
44190;DHT22;29856;52.144;5.430;2023-08-24T15:23:33;28.20;99.90
44190;DHT22;29856;52.144;5.430;2023-08-24T15:26:00;28.30;99.90